Time;durP1;ratioP1;P1;durP2;ratioP2;P2;SDS_P1;SDS_P2;PMS_P1;PMS_P2;Temp;Humidity;BMP_temperature;BMP_pressure;BME280_temperature;BME280_humidity;BME280_pressure;Samples;Min_cycle;Max_cycle;Signal;HPM_P1;HPM_P2
2023/06/01 00:00:29;;;;;;;17.20;10.27;;;;;;;;;;5097213;27;20225;-85
2023/06/01 00:02:55;;;;;;;15.00;10.07;;;;;;;;;;5117445;27;20193;-85
2023/06/01 00:05:21;;;;;;;14.07;10.00;;;;;;;;;;5135581;27;20184;-85
2023/06/01 00:07:47;;;;;;;16.10;10.77;;;;;;;;;;5100147;27;20197;-86
2023/06/01 00:10:13;;;;;;;13.97;10.77;;;;;;;;;;5098819;28;20178;-78
2023/06/01 00:12:39;;;;;;;12.57;10.13;;;;;;;;;;5133750;27;20216;-78
2023/06/01 00:15:05;;;;;;;13.17;10.23;;;;;;;;;;5117065;27;20190;-78
2023/06/01 00:17:32;;;;;;;12.53;10.60;;;;;;;;;;5116212;27;20211;-78
2023/06/01 00:20:00;;;;;;;15.67;10.63;;;;;;;;;;5105396;28;20186;-78
2023/06/01 00:22:28;;;;;;;14.23;10.47;;;;;;;;;;5123943;27;20186;-78
2023/06/01 00:24:55;;;;;;;18.90;11.13;;;;;;;;;;5096634;28;20186;-80
2023/06/01 00:27:21;;;;;;;15.23;11.00;;;;;;;;;;5096351;28;20178;-80
2023/06/01 00:29:47;;;;;;;17.37;11.90;;;;;;;;;;5106694;28;20177;-80
2023/06/01 00:32:13;;;;;;;19.40;11.80;;;;;;;;;;5094627;28;20205;-85
2023/06/01 00:34:39;;;;;;;15.70;11.73;;;;;;;;;;5116189;28;20181;-85
2023/06/01 00:37:05;;;;;;;16.30;11.77;;;;;;;;;;5116310;28;20173;-85
2023/06/01 00:39:31;;;;;;;16.03;11.27;;;;;;;;;;5100124;28;20184;-85
2023/06/01 00:41:57;;;;;;;14.67;11.47;;;;;;;;;;5099994;28;20192;-90
2023/06/01 00:44:23;;;;;;;13.47;11.70;;;;;;;;;;5118863;28;20174;-92
2023/06/01 00:46:51;;;;;;;15.07;12.00;;;;;;;;;;5110855;28;20174;-92
2023/06/01 00:49:17;;;;;;;15.60;11.47;;;;;;;;;;5151547;28;20170;-90
2023/06/01 00:51:43;;;;;;;15.37;11.97;;;;;;;;;;5113387;28;20288;-90
2023/06/01 00:54:09;;;;;;;14.33;11.57;;;;;;;;;;5081645;28;20182;-91
2023/06/01 00:56:36;;;;;;;16.27;12.20;;;;;;;;;;5088911;28;20174;-90
2023/06/01 00:59:02;;;;;;;12.80;11.47;;;;;;;;;;5097120;28;20230;-85
2023/06/01 01:01:28;;;;;;;13.73;11.60;;;;;;;;;;5114254;28;20197;-85
2023/06/01 01:03:57;;;;;;;15.17;12.30;;;;;;;;;;5096697;28;20184;-84
2023/06/01 01:06:30;;;;;;;16.63;12.60;;;;;;;;;;5098714;28;20200;-84
2023/06/01 01:09:07;;;;;;;16.93;13.23;;;;;;;;;;5116645;28;20197;-84
2023/06/01 01:11:33;;;;;;;14.97;11.93;;;;;;;;;;5134905;28;20199;-85
2023/06/01 01:14:03;;;;;;;15.77;11.90;;;;;;;;;;5116642;28;20267;-84
2023/06/01 01:16:33;;;;;;;21.13;12.33;;;;;;;;;;5135293;28;20230;-86
2023/06/01 01:19:08;;;;;;;16.60;12.27;;;;;;;;;;5117186;28;20180;-85
2023/06/01 01:21:37;;;;;;;15.43;11.50;;;;;;;;;;5116839;28;20298;-84
2023/06/01 01:24:32;;;;;;;14.83;11.80;;;;;;;;;;5134700;28;20174;-85
2023/06/01 01:27:08;;;;;;;14.40;12.23;;;;;;;;;;5025408;28;20187;-84
2023/06/01 01:29:35;;;;;;;16.20;11.90;;;;;;;;;;5110193;28;20264;-85
2023/06/01 01:32:03;;;;;;;18.37;11.90;;;;;;;;;;5112287;28;20296;-84
2023/06/01 01:34:29;;;;;;;15.80;11.43;;;;;;;;;;5106795;28;20170;-84
2023/06/01 01:36:55;;;;;;;16.97;11.80;;;;;;;;;;5108896;28;20212;-84
2023/06/01 01:39:21;;;;;;;13.13;11.30;;;;;;;;;;5111701;28;20181;-84
2023/06/01 01:41:47;;;;;;;13.63;11.60;;;;;;;;;;5109117;28;20186;-89
2023/06/01 01:44:14;;;;;;;14.37;11.90;;;;;;;;;;5131001;27;20185;-91
2023/06/01 01:47:01;;;;;;;16.17;11.33;;;;;;;;;;5106985;27;20210;-90
2023/06/01 01:49:27;;;;;;;13.57;11.23;;;;;;;;;;5120107;27;20193;-90
2023/06/01 01:51:56;;;;;;;13.20;11.33;;;;;;;;;;5119613;27;20216;-90
2023/06/01 01:54:24;;;;;;;15.73;11.63;;;;;;;;;;5120060;27;20173;-91
2023/06/01 01:56:50;;;;;;;15.27;11.93;;;;;;;;;;5107815;27;20185;-90
2023/06/01 01:59:17;;;;;;;15.27;11.87;;;;;;;;;;5090740;28;20238;-90
2023/06/01 02:01:44;;;;;;;16.10;11.87;;;;;;;;;;5093733;28;20201;-90
2023/06/01 02:04:10;;;;;;;14.87;11.77;;;;;;;;;;5078770;28;20217;-90
2023/06/01 02:06:36;;;;;;;17.30;11.67;;;;;;;;;;5095164;28;20181;-81
2023/06/01 02:09:06;;;;;;;13.80;10.50;;;;;;;;;;5114481;28;20181;-80
2023/06/01 02:11:33;;;;;;;15.37;10.37;;;;;;;;;;5116776;28;20178;-81
2023/06/01 02:13:59;;;;;;;13.17;10.47;;;;;;;;;;5082144;28;20273;-81
2023/06/01 02:16:25;;;;;;;14.03;10.80;;;;;;;;;;5084982;28;20179;-80
2023/06/01 02:18:51;;;;;;;14.90;10.63;;;;;;;;;;5107531;28;20186;-80
2023/06/01 02:21:18;;;;;;;14.33;11.77;;;;;;;;;;5098268;28;20178;-80
2023/06/01 02:23:44;;;;;;;16.23;10.63;;;;;;;;;;5098556;28;20189;-84
2023/06/01 02:26:10;;;;;;;15.90;11.47;;;;;;;;;;5098943;28;20190;-84
2023/06/01 02:28:42;;;;;;;15.37;11.00;;;;;;;;;;5082587;28;20194;-85
2023/06/01 02:31:09;;;;;;;17.70;11.97;;;;;;;;;;5097762;28;20227;-85
2023/06/01 02:33:35;;;;;;;15.60;11.30;;;;;;;;;;5095552;28;20225;-85
2023/06/01 02:36:01;;;;;;;14.43;11.77;;;;;;;;;;5070805;28;20171;-85
2023/06/01 02:38:27;;;;;;;15.20;11.80;;;;;;;;;;5096328;28;20171;-77
2023/06/01 02:40:53;;;;;;;13.03;11.50;;;;;;;;;;5078521;28;20171;-77
2023/06/01 02:43:20;;;;;;;18.03;11.33;;;;;;;;;;5061675;28;20197;-77
2023/06/01 02:45:46;;;;;;;16.87;12.07;;;;;;;;;;5075072;28;20175;-78
2023/06/01 02:48:12;;;;;;;16.37;11.90;;;;;;;;;;5079844;28;20269;-78
2023/06/01 02:50:38;;;;;;;15.80;11.47;;;;;;;;;;5108594;28;20281;-78
2023/06/01 02:53:05;;;;;;;17.07;11.60;;;;;;;;;;5093414;28;20295;-77
2023/06/01 02:55:31;;;;;;;13.00;10.30;;;;;;;;;;5077364;28;20174;-91
2023/06/01 02:57:57;;;;;;;17.70;11.57;;;;;;;;;;5061438;28;20262;-91
2023/06/01 03:00:23;;;;;;;15.57;11.27;;;;;;;;;;5077141;28;20229;-93
2023/06/01 03:02:50;;;;;;;14.13;10.40;;;;;;;;;;5117853;27;20178;-92
2023/06/01 03:05:21;;;;;;;16.03;11.07;;;;;;;;;;5112966;28;20174;-92
2023/06/01 03:07:48;;;;;;;16.40;11.73;;;;;;;;;;5097066;28;20207;-93
2023/06/01 03:10:14;;;;;;;17.73;10.70;;;;;;;;;;5106469;27;20173;-92
2023/06/01 03:12:40;;;;;;;15.87;10.37;;;;;;;;;;5101778;27;20209;-80
2023/06/01 03:15:06;;;;;;;17.23;10.93;;;;;;;;;;5118389;27;20173;-80
2023/06/01 03:17:33;;;;;;;16.03;10.33;;;;;;;;;;5133653;27;20173;-80
2023/06/01 03:20:00;;;;;;;14.77;10.07;;;;;;;;;;5116481;28;20166;-80
2023/06/01 03:22:26;;;;;;;15.43;10.67;;;;;;;;;;5115790;28;20199;-80
2023/06/01 03:24:54;;;;;;;13.93;10.30;;;;;;;;;;5098397;28;20261;-80
2023/06/01 03:27:20;;;;;;;13.30;10.57;;;;;;;;;;5097529;28;20186;-80
2023/06/01 03:29:46;;;;;;;16.77;10.10;;;;;;;;;;5097649;28;20178;-77
2023/06/01 03:32:13;;;;;;;15.43;10.47;;;;;;;;;;5097918;28;20213;-78
2023/06/01 03:34:41;;;;;;;14.97;9.90;;;;;;;;;;5109010;27;20252;-77
2023/06/01 03:37:07;;;;;;;15.07;10.00;;;;;;;;;;5135674;27;20193;-77
2023/06/01 03:39:34;;;;;;;13.63;9.37;;;;;;;;;;5117619;27;20185;-77
2023/06/01 03:42:00;;;;;;;15.50;9.50;;;;;;;;;;5135731;27;20189;-77
2023/06/01 03:44:26;;;;;;;13.23;9.10;;;;;;;;;;5135608;27;20185;-77
2023/06/01 03:46:52;;;;;;;14.87;9.57;;;;;;;;;;5110454;28;20205;-84
2023/06/01 03:49:18;;;;;;;13.53;9.53;;;;;;;;;;5116879;27;20178;-84
2023/06/01 03:51:45;;;;;;;15.33;9.87;;;;;;;;;;5117155;27;20272;-84
2023/06/01 03:54:11;;;;;;;15.40;9.00;;;;;;;;;;5100703;27;20180;-84
2023/06/01 03:56:37;;;;;;;18.43;9.77;;;;;;;;;;5117338;27;20177;-85
2023/06/01 03:59:03;;;;;;;17.33;9.50;;;;;;;;;;5117178;27;20220;-84
2023/06/01 04:01:30;;;;;;;15.23;9.83;;;;;;;;;;5135746;27;20170;-80
2023/06/01 04:03:56;;;;;;;14.40;9.13;;;;;;;;;;5101190;27;20188;-80
2023/06/01 04:06:23;;;;;;;14.57;9.23;;;;;;;;;;5117582;27;20173;-80
2023/06/01 04:08:55;;;;;;;14.40;9.37;;;;;;;;;;5117180;27;20181;-79
2023/06/01 04:11:21;;;;;;;17.60;9.37;;;;;;;;;;5117195;27;20270;-80
2023/06/01 04:13:48;;;;;;;14.93;9.07;;;;;;;;;;5117012;27;20208;-80
2023/06/01 04:16:14;;;;;;;16.30;9.50;;;;;;;;;;5102126;28;20182;-80
2023/06/01 04:18:40;;;;;;;15.07;9.13;;;;;;;;;;5079804;28;20179;-77
2023/06/01 04:21:09;;;;;;;12.23;9.13;;;;;;;;;;5097015;28;20246;-77
2023/06/01 04:23:37;;;;;;;13.10;9.00;;;;;;;;;;5097476;28;20178;-77
2023/06/01 04:26:04;;;;;;;14.83;9.00;;;;;;;;;;5113790;28;20216;-77
2023/06/01 04:28:32;;;;;;;19.30;10.07;;;;;;;;;;5113643;28;20178;-77
2023/06/01 04:30:58;;;;;;;13.83;9.30;;;;;;;;;;5109682;28;20268;-78
2023/06/01 04:33:25;;;;;;;14.20;8.47;;;;;;;;;;5096411;28;20277;-78
2023/06/01 04:35:54;;;;;;;13.50;8.90;;;;;;;;;;5096493;28;20230;-92
2023/06/01 04:38:21;;;;;;;15.97;8.37;;;;;;;;;;5082890;27;20202;-91
2023/06/01 04:40:47;;;;;;;15.77;8.77;;;;;;;;;;5117136;28;20173;-90
2023/06/01 04:43:18;;;;;;;14.87;8.87;;;;;;;;;;5117642;28;20225;-91
2023/06/01 04:45:45;;;;;;;18.27;9.73;;;;;;;;;;5118135;28;20177;-91
2023/06/01 04:48:11;;;;;;;16.03;8.57;;;;;;;;;;5100619;28;20177;-92
2023/06/01 04:50:37;;;;;;;18.67;9.07;;;;;;;;;;5117386;28;20169;-91
2023/06/01 04:53:04;;;;;;;14.43;8.90;;;;;;;;;;5116829;28;20204;-85
2023/06/01 04:55:30;;;;;;;19.83;8.37;;;;;;;;;;5117152;28;20173;-85
2023/06/01 04:57:56;;;;;;;15.73;8.33;;;;;;;;;;5100055;28;20172;-78
2023/06/01 05:00:22;;;;;;;15.67;9.07;;;;;;;;;;5134624;28;20220;-77
2023/06/01 05:02:49;;;;;;;12.07;8.17;;;;;;;;;;5099939;28;20188;-77
2023/06/01 05:05:16;;;;;;;14.90;8.70;;;;;;;;;;5100346;28;20181;-77
2023/06/01 05:07:42;;;;;;;15.90;8.60;;;;;;;;;;5116442;28;20189;-78
2023/06/01 05:10:09;;;;;;;16.20;9.57;;;;;;;;;;5108485;28;20223;-91
2023/06/01 05:12:36;;;;;;;14.57;8.53;;;;;;;;;;5079992;28;20213;-93
2023/06/01 05:15:03;;;;;;;14.60;8.57;;;;;;;;;;5083042;22;20250;-91
2023/06/01 05:17:29;;;;;;;17.33;8.50;;;;;;;;;;5071513;28;20183;-92
2023/06/01 05:19:56;;;;;;;14.43;8.50;;;;;;;;;;5056873;28;20199;-92
2023/06/01 05:22:22;;;;;;;15.03;8.30;;;;;;;;;;5047686;28;20258;-92
2023/06/01 05:24:48;;;;;;;11.67;8.33;;;;;;;;;;5056287;28;20176;-85
2023/06/01 05:27:15;;;;;;;15.53;8.83;;;;;;;;;;5062795;28;20252;-85
2023/06/01 05:29:41;;;;;;;13.97;8.43;;;;;;;;;;5059017;28;20186;-85
2023/06/01 05:32:07;;;;;;;14.57;8.60;;;;;;;;;;5045421;28;20216;-84
2023/06/01 05:34:33;;;;;;;16.90;8.67;;;;;;;;;;5055858;28;20176;-79
2023/06/01 05:37:01;;;;;;;13.97;8.80;;;;;;;;;;5072696;28;20229;-80
2023/06/01 05:39:28;;;;;;;12.33;8.93;;;;;;;;;;5059172;28;20187;-80
2023/06/01 05:41:57;;;;;;;17.83;9.07;;;;;;;;;;5074371;28;20179;-80
2023/06/01 05:44:23;;;;;;;16.93;8.97;;;;;;;;;;5075602;28;20244;-80
2023/06/01 05:46:51;;;;;;;18.03;8.43;;;;;;;;;;5071905;28;20193;-80
2023/06/01 05:49:17;;;;;;;16.20;8.50;;;;;;;;;;5075387;28;20180;-80
2023/06/01 05:51:43;;;;;;;17.83;8.80;;;;;;;;;;5075514;28;20190;-80
2023/06/01 05:54:10;;;;;;;13.90;9.07;;;;;;;;;;5059182;28;20175;-79
2023/06/01 05:56:40;;;;;;;13.00;8.53;;;;;;;;;;5061598;28;20183;-80
2023/06/01 05:59:06;;;;;;;14.53;8.30;;;;;;;;;;5075246;28;20184;-91
2023/06/01 06:01:32;;;;;;;14.20;8.83;;;;;;;;;;5064970;28;20188;-88
2023/06/01 06:03:58;;;;;;;16.73;8.50;;;;;;;;;;5056343;28;20267;-90
2023/06/01 06:06:26;;;;;;;11.40;8.47;;;;;;;;;;5048460;28;20190;-90
2023/06/01 06:08:52;;;;;;;15.17;9.30;;;;;;;;;;5069591;28;20194;-89
2023/06/01 06:11:18;;;;;;;14.27;8.50;;;;;;;;;;5062462;28;20217;-89
2023/06/01 06:13:44;;;;;;;17.83;8.67;;;;;;;;;;5052394;28;20231;-89
2023/06/01 06:16:10;;;;;;;14.83;8.53;;;;;;;;;;5074499;28;20191;-80
2023/06/01 06:18:36;;;;;;;14.57;8.70;;;;;;;;;;5072118;28;20180;-81
2023/06/01 06:21:02;;;;;;;10.90;8.53;;;;;;;;;;5038540;28;20187;-81
2023/06/01 06:23:30;;;;;;;15.90;9.23;;;;;;;;;;5038354;28;20187;-80
2023/06/01 06:25:56;;;;;;;14.80;8.53;;;;;;;;;;5055103;28;20176;-80
2023/06/01 06:28:23;;;;;;;14.73;8.37;;;;;;;;;;5043822;28;20184;-80
2023/06/01 06:30:49;;;;;;;19.13;8.70;;;;;;;;;;5055933;28;20187;-78
2023/06/01 06:33:15;;;;;;;17.03;8.93;;;;;;;;;;5073864;28;20215;-85
2023/06/01 06:35:41;;;;;;;14.87;8.50;;;;;;;;;;5053213;28;20192;-85
2023/06/01 06:38:07;;;;;;;12.30;8.33;;;;;;;;;;5074401;28;20269;-83
2023/06/01 06:40:33;;;;;;;11.33;8.20;;;;;;;;;;5075903;28;20171;-84
2023/06/01 06:42:59;;;;;;;15.80;8.83;;;;;;;;;;5053569;28;20188;-84
2023/06/01 06:45:25;;;;;;;13.53;8.00;;;;;;;;;;5039559;28;20241;-85
2023/06/01 06:47:52;;;;;;;13.17;8.20;;;;;;;;;;5055176;28;20220;-85
2023/06/01 06:50:18;;;;;;;13.77;7.90;;;;;;;;;;5054963;28;20219;-84
2023/06/01 06:52:44;;;;;;;10.67;7.67;;;;;;;;;;5055009;28;20208;-84
2023/06/01 06:55:10;;;;;;;11.10;7.87;;;;;;;;;;5054891;28;20184;-83
2023/06/01 06:57:38;;;;;;;14.03;7.40;;;;;;;;;;5074482;28;20183;-83
2023/06/01 07:00:05;;;;;;;14.57;8.67;;;;;;;;;;5058226;28;20194;-86
2023/06/01 07:02:31;;;;;;;13.33;7.57;;;;;;;;;;5058138;28;20194;-85
2023/06/01 07:04:57;;;;;;;11.80;7.77;;;;;;;;;;5074330;28;20191;-91
2023/06/01 07:07:23;;;;;;;12.33;7.63;;;;;;;;;;5057901;28;20213;-92
2023/06/01 07:09:49;;;;;;;17.03;8.20;;;;;;;;;;5038069;28;20188;-91
2023/06/01 07:12:15;;;;;;;11.70;8.20;;;;;;;;;;5038092;28;20238;-90
2023/06/01 07:14:41;;;;;;;13.77;8.27;;;;;;;;;;5038438;28;20232;-91
2023/06/01 07:17:08;;;;;;;13.37;7.80;;;;;;;;;;5040393;28;20188;-92
2023/06/01 07:19:37;;;;;;;12.03;8.27;;;;;;;;;;5053870;28;20195;-93
2023/06/01 07:22:03;;;;;;;10.90;7.73;;;;;;;;;;5074187;28;20192;-80
2023/06/01 07:24:29;;;;;;;15.07;7.97;;;;;;;;;;5057542;28;20191;-80
2023/06/01 07:26:55;;;;;;;13.67;7.30;;;;;;;;;;5057546;28;20191;-80
2023/06/01 07:29:22;;;;;;;14.87;8.47;;;;;;;;;;5074386;28;20191;-80
2023/06/01 07:31:50;;;;;;;12.20;7.67;;;;;;;;;;5067685;28;20184;-79
2023/06/01 07:34:16;;;;;;;14.23;7.67;;;;;;;;;;5067993;28;20259;-79
2023/06/01 07:36:45;;;;;;;11.53;8.10;;;;;;;;;;5072427;28;20278;-79
2023/06/01 07:39:11;;;;;;;13.97;7.47;;;;;;;;;;5069591;28;20234;-80
2023/06/01 07:41:39;;;;;;;12.77;7.83;;;;;;;;;;5062742;28;20190;-79
2023/06/01 07:44:06;;;;;;;11.13;7.37;;;;;;;;;;5041866;28;20188;-79
2023/06/01 07:46:32;;;;;;;12.77;7.90;;;;;;;;;;5071016;28;20192;-80
2023/06/01 07:48:58;;;;;;;10.27;7.33;;;;;;;;;;5073995;28;20249;-80
2023/06/01 07:51:24;;;;;;;13.30;7.60;;;;;;;;;;5057095;28;20180;-80
2023/06/01 07:53:50;;;;;;;13.43;7.20;;;;;;;;;;5057450;28;20213;-79
2023/06/01 07:56:16;;;;;;;12.33;7.47;;;;;;;;;;5048905;28;20192;-85
2023/06/01 07:58:44;;;;;;;10.63;7.30;;;;;;;;;;5037237;28;20180;-79
2023/06/01 08:01:10;;;;;;;12.33;7.67;;;;;;;;;;5055682;28;20190;-79
2023/06/01 08:03:36;;;;;;;11.17;7.07;;;;;;;;;;5056884;28;20187;-80
2023/06/01 08:06:04;;;;;;;9.60;7.13;;;;;;;;;;5074681;28;20171;-80
2023/06/01 08:08:31;;;;;;;14.40;7.07;;;;;;;;;;5044862;28;20290;-79
2023/06/01 08:10:57;;;;;;;13.10;7.40;;;;;;;;;;5052855;28;20195;-80
2023/06/01 08:13:25;;;;;;;10.57;7.27;;;;;;;;;;5054341;28;20211;-78
2023/06/01 08:15:52;;;;;;;13.50;6.90;;;;;;;;;;5053306;28;20243;-77
2023/06/01 08:18:19;;;;;;;11.27;7.30;;;;;;;;;;5062374;28;20282;-78
2023/06/01 08:20:45;;;;;;;11.60;6.83;;;;;;;;;;5090111;28;20235;-78
2023/06/01 08:23:12;;;;;;;10.07;6.70;;;;;;;;;;5090499;28;20186;-80
2023/06/01 08:25:38;;;;;;;12.10;6.83;;;;;;;;;;5073221;28;20190;-80
2023/06/01 08:28:04;;;;;;;12.07;6.47;;;;;;;;;;5089949;28;20183;-80
2023/06/01 08:30:31;;;;;;;12.13;7.03;;;;;;;;;;5072710;28;20228;-80
2023/06/01 08:32:57;;;;;;;10.40;6.50;;;;;;;;;;5056564;28;20211;-80
2023/06/01 08:35:23;;;;;;;10.57;6.77;;;;;;;;;;5074028;28;20258;-80
2023/06/01 08:37:50;;;;;;;10.90;6.97;;;;;;;;;;5071934;28;20214;-81
2023/06/01 08:40:16;;;;;;;11.87;7.10;;;;;;;;;;5072097;28;20187;-81
2023/06/01 08:42:44;;;;;;;13.20;6.50;;;;;;;;;;5072540;28;21255;-81
2023/06/01 08:45:11;;;;;;;8.40;5.83;;;;;;;;;;5074086;28;20261;-81
2023/06/01 08:47:38;;;;;;;12.60;6.70;;;;;;;;;;5070940;28;20193;-81
2023/06/01 08:50:04;;;;;;;10.17;6.87;;;;;;;;;;5072492;28;20179;-81
2023/06/01 08:52:31;;;;;;;10.40;7.00;;;;;;;;;;5073050;28;20237;-81
2023/06/01 08:55:01;;;;;;;9.63;6.53;;;;;;;;;;5084704;28;20241;-81
2023/06/01 08:57:30;;;;;;;9.20;6.57;;;;;;;;;;5077746;28;20262;-81
2023/06/01 08:59:57;;;;;;;9.97;6.63;;;;;;;;;;5078186;28;20175;-81
2023/06/01 09:02:23;;;;;;;10.30;7.50;;;;;;;;;;5078073;28;20195;-92
2023/06/01 09:04:50;;;;;;;9.23;6.63;;;;;;;;;;5079913;28;20274;-92
2023/06/01 09:07:16;;;;;;;10.27;7.20;;;;;;;;;;5079030;28;20175;-92
2023/06/01 09:09:43;;;;;;;11.67;7.10;;;;;;;;;;5061699;28;20191;-92
2023/06/01 09:12:16;;;;;;;10.57;7.13;;;;;;;;;;5077015;28;20202;-92
2023/06/01 09:14:42;;;;;;;9.60;6.60;;;;;;;;;;5076960;28;20227;-92
2023/06/01 09:17:13;;;;;;;10.10;6.70;;;;;;;;;;5077101;28;20186;-92
2023/06/01 09:19:45;;;;;;;9.70;6.23;;;;;;;;;;5076503;28;20194;-82
2023/06/01 09:22:12;;;;;;;10.20;7.20;;;;;;;;;;5076932;28;20187;-82
2023/06/01 09:24:38;;;;;;;13.13;6.50;;;;;;;;;;5076719;28;20190;-82
2023/06/01 09:27:04;;;;;;;10.23;6.50;;;;;;;;;;5076823;28;20178;-82
2023/06/01 09:29:31;;;;;;;18.90;8.60;;;;;;;;;;5059660;28;20187;-82
2023/06/01 09:31:57;;;;;;;9.10;6.27;;;;;;;;;;5075973;28;20189;-82
2023/06/01 09:34:23;;;;;;;12.17;5.97;;;;;;;;;;5076609;28;20230;-82
2023/06/01 09:36:50;;;;;;;7.87;5.80;;;;;;;;;;5075503;28;20174;-79
2023/06/01 09:39:18;;;;;;;9.37;6.60;;;;;;;;;;5075805;28;20178;-79
2023/06/01 09:41:45;;;;;;;9.47;6.60;;;;;;;;;;5076156;28;20198;-80
2023/06/01 09:44:11;;;;;;;9.20;6.27;;;;;;;;;;5076261;28;20187;-80
2023/06/01 09:46:47;;;;;;;11.98;5.55;;;;;;;;;;5077052;28;20270;-80
2023/06/01 09:49:19;;;;;;;6.75;6.00;;;;;;;;;;5076112;28;20258;-79
2023/06/01 09:51:45;;;;;;;7.88;5.90;;;;;;;;;;5093064;28;20183;-79
2023/06/01 09:54:21;;;;;;;8.82;5.78;;;;;;;;;;5075851;28;20179;-81
2023/06/01 09:56:48;;;;;;;8.18;5.78;;;;;;;;;;5076046;28;20197;-79
2023/06/01 09:59:14;;;;;;;7.47;5.80;;;;;;;;;;5058992;28;20199;-80
2023/06/01 10:01:41;;;;;;;7.10;6.25;;;;;;;;;;5091340;28;20202;-79
2023/06/01 10:04:07;;;;;;;6.85;6.13;;;;;;;;;;5059537;28;20211;-80
2023/06/01 10:06:35;;;;;;;10.75;5.93;;;;;;;;;;5055466;28;20202;-80
2023/06/01 10:09:01;;;;;;;7.32;5.82;;;;;;;;;;5058370;28;20239;-85
2023/06/01 10:11:28;;;;;;;9.88;5.65;;;;;;;;;;5059088;28;20213;-85
2023/06/01 10:13:56;;;;;;;8.73;5.32;;;;;;;;;;5075273;28;20249;-84
2023/06/01 10:16:22;;;;;;;8.43;5.40;;;;;;;;;;5074867;28;20178;-85
2023/06/01 10:18:50;;;;;;;9.35;5.55;;;;;;;;;;5039287;28;20180;-85
2023/06/01 10:21:17;;;;;;;7.63;5.68;;;;;;;;;;5022895;28;20176;-85
2023/06/01 10:23:44;;;;;;;7.90;5.60;;;;;;;;;;5052930;28;20274;-85
2023/06/01 10:26:15;;;;;;;10.27;6.22;;;;;;;;;;5056221;28;20190;-79
2023/06/01 10:28:42;;;;;;;8.88;5.40;;;;;;;;;;5025788;28;20272;-80
2023/06/01 10:31:26;;;;;;;9.88;5.50;;;;;;;;;;5055346;28;20238;-80
2023/06/01 10:33:53;;;;;;;6.75;5.45;;;;;;;;;;5055224;28;20203;-80
2023/06/01 10:36:19;;;;;;;9.82;6.22;;;;;;;;;;5055523;28;20179;-80
2023/06/01 10:38:45;;;;;;;10.98;6.20;;;;;;;;;;5038384;28;20226;-79
2023/06/01 10:41:28;;;;;;;6.32;4.63;;;;;;;;;;5038201;28;20180;-80
2023/06/01 10:43:54;;;;;;;10.15;5.40;;;;;;;;;;5052930;28;20206;-85
2023/06/01 10:46:43;;;;;;;8.02;5.60;;;;;;;;;;5074967;28;20189;-85
2023/06/01 10:49:09;;;;;;;7.47;5.35;;;;;;;;;;5074866;28;20175;-85
2023/06/01 10:51:35;;;;;;;8.95;5.32;;;;;;;;;;5076026;28;20175;-80
2023/06/01 10:54:20;;;;;;;9.57;4.97;;;;;;;;;;5074724;28;20207;-80
2023/06/01 10:56:46;;;;;;;6.90;5.05;;;;;;;;;;5074462;28;20209;-80
2023/06/01 10:59:12;;;;;;;8.38;5.38;;;;;;;;;;5058302;28;20186;-83
2023/06/01 11:01:39;;;;;;;9.15;5.00;;;;;;;;;;5058006;28;20178;-82
2023/06/01 11:04:06;;;;;;;10.98;5.88;;;;;;;;;;5048749;28;20180;-82
2023/06/01 11:06:42;;;;;;;8.40;5.35;;;;;;;;;;5064825;28;20186;-82
2023/06/01 11:09:15;;;;;;;7.22;4.90;;;;;;;;;;5071600;28;20187;-82
2023/06/01 11:11:50;;;;;;;9.20;4.90;;;;;;;;;;5054711;28;20176;-82
2023/06/01 11:14:18;;;;;;;9.63;5.43;;;;;;;;;;5058673;28;20222;-83
2023/06/01 11:16:45;;;;;;;8.90;5.25;;;;;;;;;;5073944;28;20167;-93
2023/06/01 11:19:11;;;;;;;7.35;4.95;;;;;;;;;;5074725;28;20224;-93
2023/06/01 11:21:43;;;;;;;7.90;4.97;;;;;;;;;;5074777;28;20171;-93
2023/06/01 11:24:13;;;;;;;9.57;5.18;;;;;;;;;;5068422;28;20172;-91
2023/06/01 11:26:43;;;;;;;8.30;4.80;;;;;;;;;;5044599;28;20176;-90
2023/06/01 11:29:13;;;;;;;8.30;5.03;;;;;;;;;;5031798;28;20183;-91
2023/06/01 11:31:45;;;;;;;9.50;5.35;;;;;;;;;;5062972;28;20188;-89
2023/06/01 11:34:11;;;;;;;8.07;4.88;;;;;;;;;;5047955;28;20208;-88
2023/06/01 11:36:48;;;;;;;7.93;5.25;;;;;;;;;;5046135;28;20190;-89
2023/06/01 11:39:22;;;;;;;9.27;5.20;;;;;;;;;;5049218;28;20206;-89
2023/06/01 11:41:52;;;;;;;9.50;5.40;;;;;;;;;;5045099;28;20208;-90
2023/06/01 11:44:18;;;;;;;6.60;5.68;;;;;;;;;;5045495;28;20180;-89
2023/06/01 11:46:54;;;;;;;7.32;5.30;;;;;;;;;;5050635;28;20191;-89
2023/06/01 11:49:21;;;;;;;8.82;5.55;;;;;;;;;;5032330;28;20182;-84
2023/06/01 11:51:47;;;;;;;8.48;6.00;;;;;;;;;;5043655;28;20177;-84
2023/06/01 11:54:13;;;;;;;9.95;6.25;;;;;;;;;;5030349;28;20216;-86
2023/06/01 11:56:41;;;;;;;8.30;5.63;;;;;;;;;;5053575;28;20183;-84
2023/06/01 11:59:11;;;;;;;10.95;6.20;;;;;;;;;;5046925;28;20172;-85
2023/06/01 12:01:42;;;;;;;9.95;5.78;;;;;;;;;;5042767;28;20180;-85
2023/06/01 12:04:12;;;;;;;10.25;5.97;;;;;;;;;;5042725;28;20192;-83
2023/06/01 12:06:38;;;;;;;7.68;5.75;;;;;;;;;;5046786;28;20183;-90
2023/06/01 12:09:06;;;;;;;10.35;6.50;;;;;;;;;;5051923;28;20196;-89
2023/06/01 12:11:32;;;;;;;9.30;5.65;;;;;;;;;;5053042;28;20202;-89
2023/06/01 12:13:59;;;;;;;7.80;5.22;;;;;;;;;;5057327;28;20286;-90
2023/06/01 12:16:25;;;;;;;9.63;5.57;;;;;;;;;;5075300;28;20224;-89
2023/06/01 12:18:52;;;;;;;7.28;5.90;;;;;;;;;;5074524;28;20164;-90
2023/06/01 12:21:18;;;;;;;9.48;5.78;;;;;;;;;;5056684;28;20174;-88
2023/06/01 12:23:51;;;;;;;9.07;5.00;;;;;;;;;;5091957;28;20185;-80
2023/06/01 12:26:18;;;;;;;6.88;5.00;;;;;;;;;;5076775;28;20232;-80
2023/06/01 12:28:54;;;;;;;10.15;5.60;;;;;;;;;;5059792;28;20266;-80
2023/06/01 12:31:20;;;;;;;8.40;5.22;;;;;;;;;;5094509;28;20173;-80
2023/06/01 12:33:50;;;;;;;8.07;4.63;;;;;;;;;;5076107;28;20213;-80
2023/06/01 12:36:32;;;;;;;9.70;5.05;;;;;;;;;;5076230;28;20171;-80
2023/06/01 12:38:59;;;;;;;8.35;5.30;;;;;;;;;;5076910;28;20175;-90
2023/06/01 12:41:26;;;;;;;8.40;4.90;;;;;;;;;;5078165;28;20177;-89
2023/06/01 12:43:52;;;;;;;8.52;4.68;;;;;;;;;;5076832;28;20179;-90
2023/06/01 12:46:25;;;;;;;9.38;5.85;;;;;;;;;;5076663;28;20206;-91
2023/06/01 12:48:53;;;;;;;7.88;5.20;;;;;;;;;;5077236;28;20202;-90
2023/06/01 12:51:19;;;;;;;8.65;4.68;;;;;;;;;;5076707;28;20170;-90
2023/06/01 12:53:46;;;;;;;7.72;4.53;;;;;;;;;;5059831;28;20198;-89
2023/06/01 12:56:12;;;;;;;8.10;4.68;;;;;;;;;;5076901;28;20167;-82
2023/06/01 12:58:38;;;;;;;8.23;4.85;;;;;;;;;;5055248;28;20190;-82
2023/06/01 13:01:05;;;;;;;8.35;4.85;;;;;;;;;;5057975;28;20274;-82
2023/06/01 13:03:31;;;;;;;8.35;4.50;;;;;;;;;;5045583;28;20183;-82
2023/06/01 13:05:57;;;;;;;7.57;4.50;;;;;;;;;;5061577;28;20228;-83
2023/06/01 13:08:23;;;;;;;6.68;3.95;;;;;;;;;;5059382;28;20194;-87
2023/06/01 13:10:50;;;;;;;8.18;4.18;;;;;;;;;;5055630;28;20209;-85
2023/06/01 13:13:16;;;;;;;10.55;4.63;;;;;;;;;;5061405;28;20210;-81
2023/06/01 13:15:42;;;;;;;6.93;3.90;;;;;;;;;;5058367;28;20222;-83
2023/06/01 13:18:09;;;;;;;7.25;3.60;;;;;;;;;;5072260;28;20229;-82
2023/06/01 13:20:35;;;;;;;5.03;3.50;;;;;;;;;;5072699;28;20171;-81
2023/06/01 13:23:03;;;;;;;8.80;4.30;;;;;;;;;;5069684;28;20183;-82
2023/06/01 13:25:29;;;;;;;6.22;3.97;;;;;;;;;;5066432;28;20193;-81
2023/06/01 13:27:56;;;;;;;7.30;4.30;;;;;;;;;;5068353;28;20190;-81
2023/06/01 13:30:22;;;;;;;6.57;4.70;;;;;;;;;;5065398;28;20274;-87
2023/06/01 13:32:48;;;;;;;5.95;4.22;;;;;;;;;;5067281;28;20234;-87
2023/06/01 13:35:15;;;;;;;5.82;4.13;;;;;;;;;;5065524;28;20187;-87
2023/06/01 13:37:41;;;;;;;6.70;4.57;;;;;;;;;;5068692;28;20185;-88
2023/06/01 13:40:07;;;;;;;5.63;4.47;;;;;;;;;;5067064;28;20203;-89
2023/06/01 13:42:33;;;;;;;4.97;4.05;;;;;;;;;;5071600;28;20211;-87
2023/06/01 13:45:00;;;;;;;6.60;3.90;;;;;;;;;;5054005;28;20182;-86
2023/06/01 13:47:26;;;;;;;6.25;3.97;;;;;;;;;;5069393;28;20213;-87
2023/06/01 13:49:52;;;;;;;4.93;4.05;;;;;;;;;;5069284;28;20178;-81
2023/06/01 13:52:18;;;;;;;7.72;4.65;;;;;;;;;;5069745;28;20190;-82
2023/06/01 13:54:45;;;;;;;4.68;4.22;;;;;;;;;;5068260;28;20309;-81
2023/06/01 13:57:11;;;;;;;5.82;3.97;;;;;;;;;;5070668;28;20182;-80
2023/06/01 13:59:37;;;;;;;7.65;4.57;;;;;;;;;;5052928;28;20186;-81
2023/06/01 14:02:03;;;;;;;5.43;4.93;;;;;;;;;;5067733;28;20247;-79
2023/06/01 14:04:30;;;;;;;8.52;4.85;;;;;;;;;;5071183;28;20185;-80
2023/06/01 14:06:56;;;;;;;5.88;4.55;;;;;;;;;;5064687;28;20178;-81
2023/06/01 14:09:22;;;;;;;7.97;4.75;;;;;;;;;;5087490;28;20185;-81
2023/06/01 14:11:49;;;;;;;9.57;4.90;;;;;;;;;;5089884;28;20181;-81
2023/06/01 14:14:15;;;;;;;9.50;4.97;;;;;;;;;;5053430;28;20459;-81
2023/06/01 14:16:41;;;;;;;6.55;4.75;;;;;;;;;;5087356;28;20185;-81
2023/06/01 14:19:07;;;;;;;8.05;5.05;;;;;;;;;;5052493;28;20191;-86
2023/06/01 14:21:35;;;;;;;6.75;4.53;;;;;;;;;;5071586;28;20194;-86
2023/06/01 14:24:02;;;;;;;5.90;3.85;;;;;;;;;;5071068;28;20186;-87
2023/06/01 14:26:28;;;;;;;6.38;4.45;;;;;;;;;;5056284;28;20190;-87
2023/06/01 14:28:54;;;;;;;6.00;4.50;;;;;;;;;;5073157;28;20263;-86
2023/06/01 14:31:20;;;;;;;7.13;4.50;;;;;;;;;;5054155;28;20462;-87